Terminal Aerodrome Forecast
Issued by NWS

Home | Current Version | Previous Version | Text Only | Print | Product List | Glossary On
Versions: 1 2 3 4 5 6 7 8 9 10 11 12 13 14 15 16 17 18 19 20 21 22 23
000
FTUS41 KPBZ 270533
TAFDUJ
TAF
KDUJ 270533Z 2706/2806 17006KT 4SM -SHRA BR OVC005
     FM271300 18005KT P6SM OVC010
     FM271600 21005KT P6SM OVC025
     FM272000 26007KT P6SM BKN040=

USA.gov is the U.S. government's official web portal to all federal, state and local government web resources and services.